Flight Track Log - Related Links

Times and Time Zones

All times are in EDT time to prevent confusion due to time zone crossing. See the N770NC flight status page for this flight to view local times or setup timezone preferences in your user account.

Time Position Orientation Groundspeed Altitude Reporting Facility
EDT Latitude Longitude Course Direction KTS MPH feet Rate Location/Type
Sun 08:21:48 AM 33.6500 -84.4833 260° West 195 224 3,000  Level Atlanta TRACON
Sun 08:22:54 AM 33.6667 -84.5667 284° West 274 315 5,700 2,553 Climbing Atlanta TRACON
Sun 08:24:00 AM 33.5453 -84.9163 260° West  Level FlightAware Approximate
Sun 08:24:56 AM 33.6586 -84.7625 267° West 293 337 11,000  Level Atlanta Center
Sun 08:25:00 AM 33.5274 -85.0421 260° West  Level FlightAware Approximate
Sun 08:25:56 AM 33.6286 -84.8672 251° West 315 362 12,700  Level Atlanta Center
Sun 08:26:00 AM 33.5082 -85.1677 259° West  Level FlightAware Approximate
Sun 08:26:56 AM 33.6028 -84.9842 255° West 354 407 15,000  Level Atlanta Center
Sun 08:27:00 AM 33.4888 -85.2932 260° West  Level FlightAware Approximate
Sun 08:27:56 AM 33.5767 -85.1058 256° West 373 429 17,300  Level Atlanta Center
Sun 08:28:56 AM 33.5528 -85.2303 257° West 384 442 18,900 1,650 Climbing Atlanta Center
Sun 08:29:56 AM 33.5347 -85.3447 259° West 389 448 20,600 1,500 Climbing Atlanta Center
Sun 08:30:56 AM 33.5042 -85.4764 254° West 402 463 21,900 1,950 Climbing Atlanta Center
Sun 08:31:56 AM 33.4817 -85.6078 258° West 408 470 24,500 1,850 Climbing Atlanta Center
Sun 08:32:56 AM 33.4569 -85.7369 257° West 408 470 25,600 1,250 Climbing Atlanta Center
Sun 08:33:56 AM 33.4156 -85.8581 248° West 402 463 27,000 1,100 Climbing Atlanta Center
Sun 08:34:56 AM 33.3822 -85.9867 253° West 402 463 27,800 500 Climbing Atlanta Center
Sun 08:35:56 AM 33.3528 -86.1278 256° West 417 480 28,000 100 Climbing Atlanta Center
Sun 08:36:56 AM 33.3292 -86.2914 260° West 449 517 28,000  Level Atlanta Center
Sun 08:37:56 AM 33.3122 -86.4103 260° West 455 524 28,000  Level Atlanta Center
Sun 08:38:56 AM 33.2817 -86.5808 258° West 450 518 28,000 50 Level Atlanta Center
Sun 08:39:56 AM 33.2581 -86.7167 258° West 445 512 28,100 550 Climbing Atlanta Center
Sun 08:40:56 AM 33.2297 -86.8650 257° West 445 512 29,100 900 Climbing Atlanta Center
Sun 08:41:56 AM 33.2011 -87.0081 257° West 451 519 29,900 400 Climbing Atlanta Center
Sun 08:42:56 AM 33.1483 -87.1203 241° Southwest 444 511 29,900 50 Level Atlanta Center
Sun 08:43:56 AM 33.1011 -87.2575 248° West 444 511 30,000 50 Climbing Atlanta Center
Sun 08:44:56 AM 33.0639 -87.3972 252° West 444 511 30,000  Level Atlanta Center
Sun 08:45:56 AM 33.0222 -87.5469 252° West 444 511 30,000  Level Atlanta Center
Sun 08:47:08 AM 32.9689 -87.6956 247° West 440 506 30,000  Level Memphis Center
Sun 08:48:08 AM 32.9217 -87.8256 247° West 440 506 30,000  Level Memphis Center
Sun 08:49:08 AM 32.8703 -87.9706 247° West 440 506 30,000  Level Memphis Center
Sun 08:50:08 AM 32.8225 -88.1003 246° West 440 506 30,000  Level Memphis Center
Sun 08:51:08 AM 32.7747 -88.2325 247° West 440 506 30,000  Level Memphis Center
Sun 08:52:08 AM 32.7289 -88.3669 248° West 440 506 30,000  Level Memphis Center
Sun 08:53:08 AM 32.6936 -88.5058 253° West 440 506 30,000  Level Memphis Center
Sun 08:54:08 AM 32.6683 -88.6469 258° West 440 506 30,000 -100 Level Memphis Center
Sun 08:55:08 AM 32.6411 -88.7931 258° West 445 512 29,800 -1,150 Descending Memphis Center
Sun 08:56:08 AM 32.6178 -88.9367 259° West 445 512 27,700 -2,550 Descending Memphis Center
Sun 08:57:08 AM 32.6047 -89.0822 264° West 451 519 24,700 -3,200 Descending Memphis Center
Sun 08:58:08 AM 32.6103 -89.2203 273° West 436 502 21,300 -3,350 Descending Memphis Center
Sun 08:59:08 AM 32.6031 -89.3511 266° West 422 486 18,000 -3,350 Descending Memphis Center
Sun 09:00:08 AM 32.5917 -89.4769 264° West 407 468 14,600 -3,250 Descending Memphis Center
Sun 09:01:08 AM 32.5778 -89.5881 262° West 380 437 11,500 -2,450 Descending Memphis Center
Sun 09:02:08 AM 32.5678 -89.6819 263° West 332 382 9,700 -1,900 Descending Memphis Center
Sun 09:03:08 AM 32.5472 -89.7708 255° West 300 345 7,700 -1,700 Descending Memphis Center
Sun 09:04:08 AM 32.5372 -89.8569 262° West 278 320 6,300 -1,537 Descending Memphis Center
Sun 09:05:09 AM 32.5250 -89.9361 260° West 264 304 4,600 -1,600 Descending Memphis Center
Sun 09:06:08 AM 32.4897 -90.0050 239° Southwest 251 289 3,100 -1,210 Descending Memphis Center
Sun 09:07:08 AM 32.4608 -90.0692 242° Southwest 236 272 2,200 -900 Descending Memphis Center

Login

Don't have an account? Register now (free) for customized features, flight alerts, and more!